Portada
METAR-TAF:

METAR-TAF

Aeroports :

Springdale, Arkansas, Estats Units d'Amèrica

latitud: 36-11N, longitud: 094-07W, altitud: 412 m

Observació

L'informe es va fer fa 56 minuts, a les 17:48 UTC
Vent 5 kt del Sud-Est
Temperatura 29°C
Humitat 79%
Pressió 1026 hPa
Visibilitat: 16.1 km
Cel ennuvolat a una alçada de 4600 ft
Cel ennuvolat a una alçada de 8000 ft

METAR: KASG 201748Z 13005KT 10SM BKN046 BKN080 29/25 A3030

Hora: 13:44 (18:44 UTC)


TAF: manca

Observacions i pronòstics meteorològics de més de 4000 aeroports (METAR i TAF).

Les estacions disponibles són els punts grocs i vermells al mapa.

Posi el ratolí al punt desitjat per veure el nom de l'estació.

Feu clic per veure les observacions i els pronòstics meteorològics.

Per canviar el mapa: feu clic els botons verds amb una creu de color negre per apropar; al botó verd amb un guió per allunyar la imatge; o en les fletxes verdes per a mapes adjacents.


METAR-TAF: